createdAt,value
2017-04-20T00:00:27.489Z,1000.2
2017-04-20T00:01:30.465Z,1000.2
2017-04-20T00:02:32.876Z,1000.2
2017-04-20T00:03:35.304Z,1000.2
2017-04-20T00:04:37.723Z,1000.1
2017-04-20T00:05:40.379Z,1000.1
2017-04-20T00:06:42.753Z,1000.2
2017-04-20T00:07:45.206Z,1000.1
2017-04-20T00:08:47.677Z,1000.1
2017-04-20T00:09:50.102Z,1000
2017-04-20T00:10:52.540Z,1000
2017-04-20T00:11:54.956Z,1000.1
2017-04-20T00:12:57.384Z,1000.1
2017-04-20T00:13:59.808Z,1000.1
2017-04-20T00:15:02.219Z,1000.1
2017-04-20T00:16:04.676Z,1000.1
2017-04-20T00:17:07.224Z,1000.1
2017-04-20T00:18:09.672Z,1000.1
2017-04-20T00:19:12.067Z,1000.1
2017-04-20T00:20:15.221Z,1000.1
2017-04-20T00:21:18.709Z,1000.1
2017-04-20T00:22:21.147Z,999.9
2017-04-20T00:23:23.515Z,1000.2
2017-04-20T00:24:26.006Z,1000.1
2017-04-20T00:25:28.359Z,1000.1
2017-04-20T00:26:30.731Z,1000.1
2017-04-20T00:27:33.198Z,1000.1
2017-04-20T00:28:35.881Z,1000.1
2017-04-20T00:29:38.278Z,1000.1
2017-04-20T00:30:40.710Z,999.8
2017-04-20T00:31:43.138Z,1000.1
2017-04-20T00:32:45.553Z,1000.2
2017-04-20T00:33:47.948Z,1000.2
2017-04-20T00:34:50.347Z,1000.2
2017-04-20T00:35:52.773Z,1000.2
2017-04-20T00:36:55.852Z,1000.1
2017-04-20T00:37:58.273Z,1000.1
2017-04-20T00:39:00.732Z,1000.1
2017-04-20T00:40:03.125Z,1000.1
2017-04-20T00:41:05.516Z,1000.1
2017-04-20T00:42:07.957Z,1000.1
2017-04-20T00:43:10.963Z,1000.1
2017-04-20T00:44:13.330Z,1000.1
2017-04-20T00:45:15.757Z,1000.1
2017-04-20T00:46:18.833Z,1000.1
2017-04-20T00:47:21.216Z,1000.1
2017-04-20T00:48:23.593Z,1000.1
2017-04-20T00:49:26.022Z,1000.1
2017-04-20T00:50:29.014Z,1000.2
2017-04-20T00:51:31.500Z,1000.1
2017-04-20T00:52:33.877Z,1000.1
2017-04-20T00:53:36.696Z,1000.1
2017-04-20T00:54:39.094Z,1000.1
2017-04-20T00:55:41.459Z,1000.1
2017-04-20T00:56:43.852Z,1000.1
2017-04-20T00:57:46.356Z,1000
2017-04-20T00:58:48.747Z,1000.1
2017-04-20T00:59:51.108Z,1000
2017-04-20T01:00:53.549Z,999.7
2017-04-20T01:01:55.975Z,1000.1
2017-04-20T01:02:58.367Z,1000.1
2017-04-20T01:04:00.732Z,1000
2017-04-20T01:05:03.210Z,1000
2017-04-20T01:06:05.651Z,1000
2017-04-20T01:07:08.024Z,1000
2017-04-20T01:08:10.385Z,1000
2017-04-20T01:09:12.743Z,1000
2017-04-20T01:10:15.174Z,999.9
2017-04-20T01:11:17.706Z,1000
2017-04-20T01:12:20.100Z,999.9
2017-04-20T01:13:22.498Z,999.9
2017-04-20T01:14:24.861Z,999.9
2017-04-20T01:15:27.285Z,999.9
2017-04-20T01:16:29.757Z,999.9
2017-04-20T01:17:32.150Z,999.9
2017-04-20T01:18:34.527Z,999.9
2017-04-20T01:19:36.948Z,999.9
2017-04-20T01:20:39.677Z,999.9
2017-04-20T01:21:42.067Z,999.9
2017-04-20T01:22:45.668Z,999.9
2017-04-20T01:23:48.077Z,999.9
2017-04-20T01:24:50.709Z,999.9
2017-04-20T01:25:56.366Z,999.9
2017-04-20T01:26:58.770Z,999.9
2017-04-20T01:28:01.203Z,999.9
2017-04-20T01:29:03.605Z,999.9
2017-04-20T01:30:06.001Z,999.6
2017-04-20T01:31:08.476Z,999.9
2017-04-20T01:32:10.903Z,1000
2017-04-20T01:33:13.495Z,999.9
2017-04-20T01:34:15.859Z,1000
2017-04-20T01:35:18.378Z,1000
2017-04-20T01:36:20.749Z,999.9
2017-04-20T01:37:23.127Z,999.9
2017-04-20T01:38:25.521Z,999.9
2017-04-20T01:39:27.909Z,999.9
2017-04-20T01:40:30.406Z,1000
2017-04-20T01:41:32.840Z,1000
2017-04-20T01:42:35.958Z,1000
2017-04-20T01:43:38.359Z,999.9
2017-04-20T01:44:40.739Z,999.9
2017-04-20T01:45:43.135Z,999.9
2017-04-20T01:46:45.551Z,1000
2017-04-20T01:47:48.259Z,1000
2017-04-20T01:48:51.138Z,1000
2017-04-20T01:49:53.624Z,999.9
2017-04-20T01:50:56.011Z,1000
2017-04-20T01:51:58.830Z,1000
2017-04-20T01:53:01.474Z,1000
2017-04-20T01:54:03.854Z,1000
2017-04-20T01:55:06.652Z,1000
2017-04-20T01:56:09.022Z,1000
2017-04-20T01:57:11.422Z,1000
2017-04-20T01:58:13.842Z,1000.1
2017-04-20T01:59:16.564Z,1000
2017-04-20T02:00:19.771Z,1000
2017-04-20T02:01:22.947Z,1000
2017-04-20T02:02:25.352Z,1000
2017-04-20T02:03:27.769Z,999.9
2017-04-20T02:04:30.230Z,1000
2017-04-20T02:05:32.585Z,1000
2017-04-20T02:06:35.043Z,1000
2017-04-20T02:08:48.845Z,999.6
2017-04-20T02:09:51.244Z,999.9
2017-04-20T02:10:53.643Z,999.9
2017-04-20T02:11:56.055Z,999.9
2017-04-20T02:12:58.478Z,999.9
2017-04-20T02:14:00.920Z,999.9
2017-04-20T02:15:03.298Z,1000
2017-04-20T02:16:05.737Z,1000
2017-04-20T02:17:08.098Z,1000
2017-04-20T02:18:10.491Z,999.9
2017-04-20T02:19:13.358Z,999.9
2017-04-20T02:20:15.783Z,999.9
2017-04-20T02:21:18.403Z,999.9
2017-04-20T02:22:20.812Z,1000
2017-04-20T02:23:23.194Z,1000
2017-04-20T02:24:25.540Z,999.9
2017-04-20T02:25:28.005Z,999.9
2017-04-20T02:26:30.964Z,999.9
2017-04-20T02:27:33.326Z,999.9
2017-04-20T02:28:35.734Z,999.9
2017-04-20T02:29:38.136Z,999.9
2017-04-20T02:30:40.545Z,999.9
2017-04-20T02:31:42.888Z,1000
2017-04-20T02:32:45.252Z,999.9
2017-04-20T02:33:47.696Z,999.9
2017-04-20T02:34:50.449Z,1000
2017-04-20T02:35:52.856Z,1000
2017-04-20T02:36:55.233Z,999.9
2017-04-20T02:37:57.662Z,1000
2017-04-20T02:39:00.091Z,1000
2017-04-20T02:40:02.674Z,1000
2017-04-20T02:41:05.068Z,1000
2017-04-20T02:42:07.457Z,1000
2017-04-20T02:43:09.844Z,1000
2017-04-20T02:44:12.250Z,1000
2017-04-20T02:45:14.645Z,1000.1
2017-04-20T02:46:16.971Z,1000.1
2017-04-20T02:47:19.408Z,1000.1
2017-04-20T02:48:21.812Z,1000.1
2017-04-20T02:49:24.269Z,1000.1
2017-04-20T02:50:26.633Z,1000
2017-04-20T02:51:28.995Z,1000.1
2017-04-20T02:52:31.373Z,1000.1
2017-04-20T02:53:33.771Z,1000
2017-04-20T02:54:36.148Z,1000
2017-04-20T02:55:38.578Z,1000
2017-04-20T02:56:41.031Z,1000
2017-04-20T02:57:43.443Z,1000
2017-04-20T02:58:45.824Z,1000
2017-04-20T02:59:48.188Z,1000
2017-04-20T03:00:50.610Z,999.9
2017-04-20T03:01:53.051Z,1000
2017-04-20T03:02:55.413Z,1000
2017-04-20T03:03:57.777Z,1000
2017-04-20T03:05:00.451Z,999.6
2017-04-20T03:06:03.318Z,999.9
2017-04-20T03:07:05.718Z,999.9
2017-04-20T03:08:08.109Z,999.9
2017-04-20T03:09:10.504Z,999.9
2017-04-20T03:10:12.901Z,999.9
2017-04-20T03:11:15.262Z,999.9
2017-04-20T03:12:17.652Z,999.2
2017-04-20T03:13:20.053Z,999.9
2017-04-20T03:14:22.459Z,999.9
2017-04-20T03:15:25.304Z,999.9
2017-04-20T03:16:27.752Z,999.9
2017-04-20T03:17:30.165Z,999.5
2017-04-20T03:18:32.543Z,999.9
2017-04-20T03:19:34.906Z,999.9
2017-04-20T03:20:37.278Z,1000
2017-04-20T03:21:40.100Z,1000
2017-04-20T03:22:42.497Z,999.6
2017-04-20T03:23:45.118Z,1000
2017-04-20T03:24:47.483Z,999.9
2017-04-20T03:25:49.874Z,1000
2017-04-20T03:26:52.256Z,999.9
2017-04-20T03:27:54.634Z,1000
2017-04-20T03:28:57.017Z,1000
2017-04-20T03:29:59.394Z,1000
2017-04-20T03:31:01.839Z,1000
2017-04-20T03:32:04.310Z,1000
2017-04-20T03:33:06.836Z,1000
2017-04-20T03:34:09.205Z,1000
2017-04-20T03:35:11.568Z,1000
2017-04-20T03:36:13.963Z,1000
2017-04-20T03:37:16.598Z,1000
2017-04-20T03:38:19.006Z,1000.1
2017-04-20T03:39:21.388Z,1000
2017-04-20T03:40:23.754Z,1000.1
2017-04-20T03:41:26.143Z,1000
2017-04-20T03:42:28.676Z,1000.1
2017-04-20T03:43:31.069Z,1000.1
2017-04-20T03:44:33.663Z,1000.1
2017-04-20T03:45:36.139Z,1000.1
2017-04-20T03:46:39.315Z,1000.1
2017-04-20T03:47:41.720Z,1000.1
2017-04-20T03:48:44.076Z,1000.2
2017-04-20T03:49:46.470Z,1000.2
2017-04-20T03:50:48.900Z,1000.2
2017-04-20T03:51:52.373Z,1000.1
2017-04-20T03:52:55.112Z,1000.1
2017-04-20T03:53:57.476Z,1000.2
2017-04-20T03:54:59.832Z,1000.1
2017-04-20T03:56:02.261Z,1000.1
2017-04-20T03:57:04.655Z,1000.1
2017-04-20T03:58:07.045Z,1000.1
2017-04-20T03:59:09.412Z,1000.1
2017-04-20T04:00:11.810Z,1000.1
2017-04-20T04:01:14.322Z,1000.1
2017-04-20T04:02:16.676Z,1000.1
2017-04-20T04:03:19.122Z,1000.1
2017-04-20T04:04:21.529Z,1000.1
2017-04-20T04:05:23.929Z,1000
2017-04-20T04:06:26.314Z,1000.1
2017-04-20T04:07:28.776Z,1000.1
2017-04-20T04:08:31.221Z,1000
2017-04-20T04:09:33.616Z,1000
2017-04-20T04:10:36.001Z,1000
2017-04-20T04:11:38.395Z,1000.1
2017-04-20T04:12:41.692Z,1000
2017-04-20T04:13:44.891Z,1000.1
2017-04-20T04:14:47.969Z,1000
2017-04-20T04:15:50.344Z,1000
2017-04-20T04:16:52.815Z,1000.1
2017-04-20T04:17:55.248Z,1000.1
2017-04-20T04:18:57.724Z,1000.1
2017-04-20T04:20:00.160Z,1000.1
2017-04-20T04:21:02.613Z,1000.2
2017-04-20T04:22:05.054Z,1000.1
2017-04-20T04:23:07.469Z,1000
2017-04-20T04:24:09.858Z,1000.2
2017-04-20T04:25:14.946Z,1000.2
2017-04-20T04:26:17.454Z,1000.2
2017-04-20T04:27:19.906Z,1000.2
2017-04-20T04:28:22.270Z,1000.2
2017-04-20T04:29:25.465Z,1000.2
2017-04-20T04:30:27.939Z,1000.2
2017-04-20T04:31:31.450Z,1000.1
2017-04-20T04:32:33.956Z,1000.2
2017-04-20T04:33:36.369Z,1000.2
2017-04-20T04:34:38.841Z,1000.2
2017-04-20T04:35:41.637Z,1000.1
2017-04-20T04:36:44.014Z,999.9
2017-04-20T04:37:46.355Z,1000.2
2017-04-20T04:38:48.786Z,999.8
2017-04-20T04:39:51.685Z,1000.1
2017-04-20T04:40:54.093Z,1000.1
2017-04-20T04:41:56.545Z,1000.1
2017-04-20T04:42:58.958Z,1000.1
2017-04-20T04:44:01.396Z,1000.2
2017-04-20T04:46:15.214Z,1000.1
2017-04-20T04:47:17.642Z,1000.1
2017-04-20T04:48:20.149Z,1000.2
2017-04-20T04:49:23.232Z,1000.2
2017-04-20T04:50:25.587Z,1000.2
2017-04-20T04:51:28.049Z,1000.2
2017-04-20T04:52:33.557Z,1000.2
2017-04-20T04:53:35.919Z,1000.2
2017-04-20T04:54:38.338Z,1000.2
2017-04-20T04:55:40.989Z,1000.2
2017-04-20T07:09:23.843Z,999.7
2017-04-20T07:10:27.842Z,999.7
2017-04-20T07:11:33.887Z,999.5
2017-04-20T07:12:38.666Z,999.8
2017-04-20T07:13:45.177Z,999.5
2017-04-20T07:14:48.765Z,999.5
2017-04-20T07:15:51.545Z,999.7
2017-04-20T07:16:55.253Z,999.6
2017-04-20T07:17:58.072Z,999.8
2017-04-20T07:19:00.536Z,999.7
2017-04-20T07:20:03.883Z,999.6
2017-04-20T07:21:06.288Z,999.8
2017-04-20T07:22:09.112Z,999.7
2017-04-20T07:23:11.529Z,999.7
2017-04-20T07:24:16.996Z,999.9
2017-04-20T07:25:19.478Z,999.8
2017-04-20T07:26:22.012Z,999.7
2017-04-20T07:27:24.584Z,999.7
2017-04-20T07:28:28.079Z,999.7
2017-04-20T07:29:30.645Z,999.8
2017-04-20T07:30:34.776Z,999.7
2017-04-20T07:31:37.250Z,999.7
2017-04-20T07:32:40.048Z,999.6
2017-04-20T07:33:42.585Z,999.8
2017-04-20T07:34:45.156Z,999.7
2017-04-20T07:35:47.704Z,999.9
2017-04-20T07:36:50.141Z,1000
2017-04-20T07:37:52.810Z,1000.1
2017-04-20T07:38:55.551Z,999.8
2017-04-20T07:39:57.975Z,999.8
2017-04-20T07:41:00.370Z,999.7
2017-04-20T07:42:02.849Z,999.7
2017-04-20T07:43:05.467Z,999.6
2017-04-20T07:44:08.074Z,999.6
2017-04-20T07:45:11.056Z,999.7
2017-04-20T07:46:13.500Z,999.7
2017-04-20T07:47:16.026Z,999.8
2017-04-20T07:48:18.557Z,999.7
2017-04-20T07:49:21.060Z,999.7
2017-04-20T07:50:23.534Z,999.7
2017-04-20T07:51:26.177Z,999.9
2017-04-20T07:52:28.818Z,999.8
2017-04-20T07:53:31.481Z,999.7
2017-04-20T07:54:33.985Z,999.7
2017-04-20T07:55:36.504Z,999.6
2017-04-20T07:56:39.123Z,999.7
2017-04-20T07:57:41.688Z,999.8
2017-04-20T07:58:44.181Z,1000.2
2017-04-20T07:59:46.670Z,1001
2017-04-20T08:00:49.198Z,1000.9
2017-04-20T08:01:54.012Z,1000.8
2017-04-20T08:02:56.664Z,1000.8
2017-04-20T08:03:59.142Z,1001
2017-04-20T08:05:01.738Z,1000.9
2017-04-20T08:06:04.284Z,1000.7
2017-04-20T08:07:07.278Z,1000.5
2017-04-20T08:08:09.984Z,1000.7
2017-04-20T08:09:12.620Z,1000.6
2017-04-20T08:10:15.349Z,1000.6
2017-04-20T08:11:17.888Z,1000.7
2017-04-20T08:12:20.427Z,1000.8
2017-04-20T08:13:23.031Z,1000.7
2017-04-20T08:14:25.514Z,1000.7
2017-04-20T08:15:37.057Z,1000.9
2017-04-20T08:16:39.482Z,1000.8
2017-04-20T08:17:41.940Z,1001
2017-04-20T08:18:44.658Z,1000.9
2017-04-20T08:19:47.325Z,1000.7
2017-04-20T08:20:49.756Z,1000.8
2017-04-20T08:21:52.270Z,1000.9
2017-04-20T08:22:54.706Z,1000.7
2017-04-20T08:23:57.801Z,1000.6
2017-04-20T08:25:00.227Z,1000.6
2017-04-20T08:26:02.710Z,1000.6
2017-04-20T08:27:05.346Z,999.6
2017-04-20T08:28:07.964Z,1000.4
2017-04-20T08:29:11.000Z,1000.4
2017-04-20T08:30:15.004Z,1000.6
2017-04-20T08:31:17.572Z,1000.8
2017-04-20T08:32:21.816Z,1000.6
2017-04-20T08:33:24.417Z,1000.5
2017-04-20T08:34:27.190Z,1000.5
2017-04-20T08:35:30.096Z,1000.5
2017-04-20T08:36:32.505Z,1000.3
2017-04-20T08:37:35.074Z,1000.3
2017-04-20T08:38:37.514Z,1000.6
2017-04-20T08:39:40.675Z,1000.5
2017-04-20T08:40:43.205Z,1000.5
2017-04-20T08:41:45.649Z,1000.5
2017-04-20T08:42:48.128Z,1000.5
2017-04-20T08:43:51.207Z,1000.6
2017-04-20T08:44:53.826Z,1000.7
2017-04-20T08:45:56.563Z,1000.5
2017-04-20T08:46:59.157Z,1000.5
2017-04-20T08:48:01.705Z,1000.5
2017-04-20T08:49:04.336Z,1000.5
2017-04-20T08:50:07.352Z,1000.4
2017-04-20T08:51:09.820Z,1000.7
2017-04-20T08:52:12.349Z,1000.7
2017-04-20T08:53:14.985Z,1000.7
2017-04-20T08:54:17.804Z,1000.5
2017-04-20T08:55:20.407Z,1000.6
2017-04-20T08:56:23.650Z,1000.7
2017-04-20T08:57:26.162Z,1000.6
2017-04-20T08:58:28.818Z,1000.5
2017-04-20T08:59:31.301Z,1000.7
2017-04-20T09:00:33.977Z,1000.6
2017-04-20T09:01:36.665Z,1000.4
2017-04-20T09:02:39.566Z,1000.4
2017-04-20T09:03:42.151Z,1000.2
2017-04-20T09:04:44.734Z,1000.1
2017-04-20T09:05:47.288Z,999.8
2017-04-20T09:06:49.921Z,999.6
2017-04-20T09:07:52.459Z,999.6
2017-04-20T09:08:55.155Z,999.6
2017-04-20T09:09:57.626Z,999.6
2017-04-20T09:11:00.187Z,999.8
2017-04-20T09:12:02.844Z,999.7
2017-04-20T09:13:05.519Z,999.6
2017-04-20T09:14:08.092Z,999.8
2017-04-20T09:15:10.588Z,999.8
2017-04-20T09:16:13.257Z,999.4
2017-04-20T09:17:15.857Z,999.6
2017-04-20T09:18:18.432Z,999.6
2017-04-20T09:19:21.093Z,999.4
2017-04-20T09:20:23.630Z,999.5
2017-04-20T09:21:26.171Z,999.6
2017-04-20T09:22:28.769Z,999.6
2017-04-20T09:23:31.510Z,999.7
2017-04-20T09:24:34.022Z,999.9
2017-04-20T09:25:36.580Z,1000
2017-04-20T09:26:39.213Z,999.8
2017-04-20T09:27:41.927Z,999.7
2017-04-20T09:28:44.541Z,999.9
2017-04-20T09:29:47.133Z,999.7
2017-04-20T09:30:49.816Z,999.7
2017-04-20T09:31:52.400Z,999.7
2017-04-20T09:32:54.963Z,999.7
2017-04-20T09:33:58.421Z,999.6
2017-04-20T09:35:00.980Z,1000
2017-04-20T09:36:03.674Z,999.8
2017-04-20T09:37:06.318Z,999.7
2017-04-20T09:38:09.583Z,999.6
2017-04-20T09:39:12.726Z,999.4
2017-04-20T09:40:15.444Z,999.7
2017-04-20T09:41:18.729Z,999.6
2017-04-20T09:42:21.567Z,999.6
2017-04-20T09:43:24.440Z,999.7
2017-04-20T09:44:27.845Z,999.8
2017-04-20T09:45:32.064Z,1000
2017-04-20T09:46:34.717Z,1000
2017-04-20T09:47:37.480Z,999.8
2017-04-20T09:48:41.503Z,999.7
2017-04-20T09:49:45.247Z,999.7
2017-04-20T09:50:49.415Z,999.7
2017-04-20T09:51:52.415Z,999.7
2017-04-20T09:52:56.050Z,999.7
2017-04-20T09:53:58.952Z,999.8
2017-04-20T09:55:02.298Z,999.7
2017-04-20T09:56:04.989Z,999.7
2017-04-20T09:57:07.695Z,999.8
2017-04-20T09:58:10.704Z,999.8
2017-04-20T09:59:13.357Z,999.8
2017-04-20T10:00:15.992Z,999.7
2017-04-20T10:01:20.092Z,999.7
2017-04-20T10:02:22.880Z,999.7
2017-04-20T10:03:25.541Z,999.7
2017-04-20T10:04:28.801Z,999.6
2017-04-20T10:05:31.794Z,999.6
2017-04-20T10:06:34.669Z,999.9
2017-04-20T10:07:40.196Z,999.7
2017-04-20T10:08:42.902Z,999.8
2017-04-20T10:09:45.672Z,999.8
2017-04-20T10:10:48.569Z,999.7
2017-04-20T10:11:51.643Z,999.7
2017-04-20T10:12:54.604Z,999.8
2017-04-20T10:13:57.500Z,999.8
2017-04-20T10:15:00.165Z,999.6
2017-04-20T10:16:03.019Z,999.6
2017-04-20T10:17:06.089Z,999.6
2017-04-20T10:18:10.482Z,999.5
2017-04-20T10:19:13.716Z,999.5
2017-04-20T10:20:16.246Z,999.4
2017-04-20T10:21:19.768Z,999.5
2017-04-20T10:22:23.547Z,999.5
2017-04-20T10:23:26.362Z,999.2
2017-04-20T10:24:30.686Z,999.5
2017-04-20T10:25:34.339Z,999.5
2017-04-20T10:26:37.320Z,999.4
2017-04-20T10:27:41.379Z,999.4
2017-04-20T10:28:44.546Z,999.3
2017-04-20T10:29:49.184Z,999.7
2017-04-20T10:30:51.816Z,999.8
2017-04-20T10:31:56.074Z,999.6
2017-04-20T10:32:59.834Z,999.5
2017-04-20T10:34:03.190Z,999.6
2017-04-20T10:35:05.722Z,999.7
2017-04-20T10:36:09.088Z,999.5
2017-04-20T10:37:11.837Z,999.5
2017-04-20T10:38:14.931Z,999.5
2017-04-20T10:39:19.226Z,999.6
2017-04-20T10:40:23.776Z,999.6
2017-04-20T10:41:27.374Z,999.5
2017-04-20T10:42:30.449Z,999.6
2017-04-20T10:43:33.998Z,999.3
2017-04-20T10:44:36.976Z,999.5
2017-04-20T10:45:41.273Z,999.4
2017-04-20T10:46:45.917Z,999.5
2017-04-20T10:47:51.099Z,999.5
2017-04-20T10:48:54.227Z,999.5
2017-04-20T10:49:59.026Z,999.5
2017-04-20T10:51:05.409Z,999.5
2017-04-20T10:52:13.356Z,999.4
2017-04-20T10:53:16.577Z,999.4
2017-04-20T10:54:21.954Z,999.5
2017-04-20T10:55:25.689Z,999.4
2017-04-20T10:56:32.776Z,999.4
2017-04-20T10:57:38.897Z,999.4
2017-04-20T10:58:44.953Z,999.4
2017-04-20T10:59:49.448Z,999.3
2017-04-20T11:00:54.809Z,999.3
2017-04-20T11:01:59.674Z,999.3
2017-04-20T11:03:05.875Z,998.9
2017-04-20T11:04:11.792Z,999.3
2017-04-20T11:06:39.896Z,999.3
2017-04-20T11:07:49.974Z,999.2
2017-04-20T11:08:57.561Z,999.3
2017-04-20T11:10:03.564Z,999.3
2017-04-20T11:11:10.569Z,999.2
2017-04-20T11:12:14.773Z,999.2
2017-04-20T11:13:22.670Z,999
2017-04-20T11:14:31.587Z,999.2
2017-04-20T11:15:39.362Z,999.2
2017-04-20T11:16:45.904Z,999.3
2017-04-20T11:17:52.348Z,999.3
2017-04-20T11:18:59.668Z,999.2
2017-04-20T11:20:04.087Z,999.2
2017-04-20T11:21:09.043Z,999.2
2017-04-20T11:22:16.412Z,999.2
2017-04-20T11:23:27.539Z,999
2017-04-20T11:24:35.376Z,999.2
2017-04-20T11:25:38.709Z,999.1
2017-04-20T11:26:45.752Z,999
2017-04-20T11:27:51.932Z,999
2017-04-20T11:28:58.046Z,999
2017-04-20T11:30:03.352Z,999
2017-04-20T11:31:08.709Z,999.1
2017-04-20T11:32:12.092Z,999.1
2017-04-20T11:33:15.169Z,999.2
2017-04-20T11:34:19.047Z,999.2
2017-04-20T11:35:23.846Z,999.1
2017-04-20T11:36:31.101Z,999.1
2017-04-20T11:37:38.492Z,999
2017-04-20T11:38:51.558Z,998.9
2017-04-20T11:40:03.036Z,998.8
2017-04-20T11:41:10.237Z,998.7
2017-04-20T11:42:16.618Z,999.1
2017-04-20T11:43:25.130Z,999
2017-04-20T11:44:31.835Z,999
2017-04-20T11:45:39.260Z,999
2017-04-20T11:46:45.557Z,999
2017-04-20T11:47:53.535Z,998.9
2017-04-20T11:49:02.461Z,998.9
2017-04-20T11:50:10.578Z,998.9
2017-04-20T11:51:19.636Z,998.9
2017-04-20T11:52:26.563Z,998.9
2017-04-20T11:53:33.589Z,999
2017-04-20T11:54:42.350Z,998.9
2017-04-20T11:55:49.337Z,998.6
2017-04-20T11:56:57.344Z,998.7
2017-04-20T11:58:07.205Z,998.8
2017-04-20T11:59:15.012Z,998.9
2017-04-20T12:00:21.029Z,998.8
2017-04-20T12:01:31.561Z,998.7
2017-04-20T12:02:38.921Z,998.8
2017-04-20T12:03:50.758Z,998.6
2017-04-20T12:04:57.680Z,998.8
2017-04-20T12:06:04.419Z,998.8
2017-04-20T12:07:12.323Z,998.7
2017-04-20T12:08:18.833Z,998.7
2017-04-20T12:09:28.407Z,998.8
2017-04-20T12:10:34.967Z,998.8
2017-04-20T12:11:49.002Z,999
2017-04-20T12:12:58.515Z,998.8
2017-04-20T12:14:12.604Z,998.8
2017-04-20T12:15:22.758Z,998.7
2017-04-20T12:16:32.076Z,998.8
2017-04-20T12:17:40.906Z,998.8
2017-04-20T12:18:50.293Z,998.8
2017-04-20T12:19:56.906Z,998.9
2017-04-20T12:21:04.878Z,998.9
2017-04-20T12:22:11.604Z,998.9
2017-04-20T12:23:19.305Z,998.6
2017-04-20T12:24:24.779Z,998.6
2017-04-20T12:25:30.608Z,998.7
2017-04-20T12:26:38.909Z,998.8
2017-04-20T12:27:47.829Z,998.5
2017-04-20T12:28:57.824Z,998.7
2017-04-20T12:30:04.949Z,998.7
2017-04-20T12:31:12.976Z,998.6
2017-04-20T12:32:20.117Z,998.6
2017-04-20T12:33:27.698Z,998.6
2017-04-20T12:34:34.917Z,998.5
2017-04-20T12:35:45.239Z,998.6
2017-04-20T12:36:54.569Z,998.5
2017-04-20T12:38:03.836Z,998.5
2017-04-20T12:39:24.339Z,998.5
2017-04-20T12:40:31.403Z,998.5
2017-04-20T12:41:38.913Z,998.5
2017-04-20T12:42:47.529Z,998.3
2017-04-20T12:43:58.806Z,998.1
2017-04-20T12:45:04.385Z,998.4
2017-04-20T12:46:10.585Z,998.4
2017-04-20T12:47:19.348Z,998.4
2017-04-20T12:48:29.942Z,998.4
2017-04-20T12:49:34.878Z,998.2
2017-04-20T12:50:44.969Z,998.4
2017-04-20T12:51:52.999Z,998.4
2017-04-20T12:53:00.690Z,998.5
2017-04-20T12:54:07.273Z,998.2
2017-04-20T12:55:13.163Z,998.3
2017-04-20T12:56:17.885Z,998.3
2017-04-20T12:57:24.797Z,998.3
2017-04-20T12:58:31.292Z,998.3
2017-04-20T12:59:39.666Z,998.2
2017-04-20T13:00:45.472Z,998.2
2017-04-20T13:01:53.026Z,998.2
2017-04-20T13:03:03.160Z,998.2
2017-04-20T13:04:11.305Z,997.9
2017-04-20T13:05:23.073Z,998.2
2017-04-20T13:06:33.192Z,998.1
2017-04-20T13:07:41.424Z,998.1
2017-04-20T13:08:52.886Z,998.1
2017-04-20T13:10:02.026Z,998.1
2017-04-20T13:11:09.783Z,998.1
2017-04-20T13:12:18.526Z,998
2017-04-20T13:13:33.193Z,998.1
2017-04-20T13:14:41.382Z,997.8
2017-04-20T13:15:52.314Z,997.8
2017-04-20T13:17:00.978Z,998
2017-04-20T13:18:08.862Z,998
2017-04-20T13:19:21.813Z,998
2017-04-20T13:20:28.449Z,997.9
2017-04-20T13:21:37.344Z,997.9
2017-04-20T13:22:46.282Z,997.9
2017-04-20T13:23:54.155Z,997.7
2017-04-20T13:25:04.581Z,997.8
2017-04-20T13:26:12.879Z,997.9
2017-04-20T13:27:24.086Z,997.6
2017-04-20T13:28:36.917Z,997.5
2017-04-20T13:29:46.402Z,997.6
2017-04-20T13:30:55.264Z,997.8
2017-04-20T13:32:04.450Z,997.7
2017-04-20T13:33:13.660Z,997.8
2017-04-20T13:34:23.605Z,997.8
2017-04-20T13:35:26.972Z,997.8
2017-04-20T13:36:33.797Z,997.8
2017-04-20T13:37:43.727Z,997.8
2017-04-20T13:38:48.648Z,997.8
2017-04-20T13:39:55.213Z,997.7
2017-04-20T13:41:03.827Z,997.7
2017-04-20T13:42:10.868Z,997.7
2017-04-20T13:43:24.452Z,997.6
2017-04-20T13:44:34.287Z,997.6
2017-04-20T13:45:43.654Z,997.6
2017-04-20T13:46:51.610Z,997.6
2017-04-20T13:48:07.081Z,997.6
2017-04-20T13:49:17.587Z,997.5
2017-04-20T13:50:27.748Z,997.5
2017-04-20T13:51:40.257Z,997.5
2017-04-20T13:52:52.010Z,997.4
2017-04-20T13:54:00.230Z,997.4
2017-04-20T13:55:12.071Z,997.3
2017-04-20T13:56:28.432Z,997.4
2017-04-20T13:57:37.090Z,997.4
2017-04-20T13:58:47.674Z,997.4
2017-04-20T13:59:57.566Z,997.4
2017-04-20T14:01:04.544Z,997.4
2017-04-20T14:02:14.349Z,997.3
2017-04-20T14:03:22.741Z,997.3
2017-04-20T14:04:31.411Z,997.1
2017-04-20T14:05:39.617Z,997.3
2017-04-20T14:06:50.612Z,997.3
2017-04-20T14:08:00.290Z,997.3
2017-04-20T14:09:09.178Z,997.2
2017-04-20T14:10:16.630Z,997.3
2017-04-20T14:11:27.978Z,997.3
2017-04-20T14:12:37.937Z,997.2
2017-04-20T14:13:49.741Z,997.2
2017-04-20T14:14:59.111Z,997.2
2017-04-20T14:16:07.856Z,997.3
2017-04-20T14:17:18.342Z,997.2
2017-04-20T14:18:30.226Z,997.2
2017-04-20T14:19:41.791Z,997.2
2017-04-20T14:20:51.126Z,997.2
2017-04-20T14:22:00.997Z,997.1
2017-04-20T14:23:12.712Z,997.2
2017-04-20T14:24:20.867Z,997.1
2017-04-20T14:25:34.550Z,997.1
2017-04-20T14:26:46.857Z,996.7
2017-04-20T14:28:03.570Z,996.9
2017-04-20T14:29:12.730Z,996.7
2017-04-20T14:30:22.046Z,997.1
2017-04-20T14:31:32.564Z,997.1
2017-04-20T14:32:41.042Z,997
2017-04-20T14:33:54.192Z,997.1
2017-04-20T14:35:05.784Z,997.1
2017-04-20T14:36:17.484Z,997
2017-04-20T14:37:27.257Z,997.1
2017-04-20T14:38:35.579Z,997
2017-04-20T14:39:46.616Z,997.1
2017-04-20T14:40:58.870Z,997
2017-04-20T14:42:18.230Z,996.9
2017-04-20T14:43:30.613Z,997.1
2017-04-20T14:44:40.698Z,997
2017-04-20T14:45:55.213Z,997
2017-04-20T14:47:07.326Z,996.9
2017-04-20T14:48:21.253Z,997
2017-04-20T14:49:34.360Z,996.7
2017-04-20T14:50:49.604Z,996.8
2017-04-20T14:52:01.490Z,997
2017-04-20T14:53:14.807Z,997
2017-04-20T14:54:27.977Z,996.8
2017-04-20T14:55:43.520Z,996.8
2017-04-20T14:57:00.344Z,997
2017-04-20T14:58:12.965Z,997
2017-04-20T14:59:25.662Z,997
2017-04-20T15:00:38.103Z,996.9
2017-04-20T15:01:49.763Z,996.9
2017-04-20T15:03:01.754Z,996.9
2017-04-20T15:04:12.686Z,997
2017-04-20T15:05:26.949Z,997
2017-04-20T15:06:36.465Z,997
2017-04-20T15:07:44.901Z,996.9
2017-04-20T15:08:58.610Z,996.9
2017-04-20T15:10:10.447Z,996.9
2017-04-20T15:11:20.698Z,996.9
2017-04-20T15:12:30.131Z,996.9
2017-04-20T15:13:44.194Z,996.6
2017-04-20T15:14:53.281Z,996.9
2017-04-20T15:16:02.534Z,996.9
2017-04-20T15:17:14.745Z,996.9
2017-04-20T15:18:27.876Z,996.9
2017-04-20T15:19:43.134Z,996.9
2017-04-20T15:22:11.880Z,996.8
2017-04-20T15:23:21.333Z,996.8
2017-04-20T15:24:32.473Z,996.8
2017-04-20T15:25:47.512Z,996.8
2017-04-20T15:26:58.001Z,996.8
2017-04-20T15:28:07.255Z,996.6
2017-04-20T15:29:16.282Z,996.8
2017-04-20T15:30:26.776Z,996.6
2017-04-20T15:31:36.140Z,996.8
2017-04-20T15:32:49.305Z,996.9
2017-04-20T15:34:02.765Z,996.8
2017-04-20T15:35:14.476Z,996.8
2017-04-20T15:36:27.607Z,996.8
2017-04-20T15:37:43.133Z,996.9
2017-04-20T15:38:53.626Z,996.8
2017-04-20T15:40:04.870Z,996.6
2017-04-20T15:41:19.766Z,996.8
2017-04-20T15:42:32.885Z,996.8
2017-04-20T15:43:43.362Z,996.8
2017-04-20T15:44:57.580Z,996.8
2017-04-20T15:46:13.296Z,996.7
2017-04-20T15:46:46.282Z,996.8
2017-04-20T15:47:56.981Z,996.8
2017-04-20T15:49:10.885Z,996.5
2017-04-20T15:50:25.248Z,996.8
2017-04-20T15:51:35.212Z,996.7
2017-04-20T15:52:50.630Z,996.7
2017-04-20T15:54:00.543Z,996.5
2017-04-20T15:55:10.762Z,996.7
2017-04-20T15:56:19.012Z,996.8
2017-04-20T15:57:27.063Z,996.7
2017-04-20T15:58:39.683Z,996.5
2017-04-20T15:59:49.903Z,996.7
2017-04-20T16:00:58.738Z,996.7
2017-04-20T16:02:09.323Z,996.5
2017-04-20T16:03:18.706Z,996.8
2017-04-20T16:04:29.031Z,996.7
2017-04-20T16:05:37.589Z,996.7
2017-04-20T16:06:50.713Z,996.7
2017-04-20T16:08:05.024Z,996.7
2017-04-20T16:09:16.101Z,996.7
2017-04-20T16:10:25.101Z,996.7
2017-04-20T16:11:38.819Z,996.7
2017-04-20T16:12:50.410Z,996.5
2017-04-20T16:14:03.371Z,996.7
2017-04-20T16:15:16.392Z,996.7